createdAt,value
2017-12-31T00:01:35.409Z,1.00
2017-12-31T00:04:04.643Z,1.10
2017-12-31T00:06:34.343Z,1.10
2017-12-31T00:09:04.430Z,1.10
2017-12-31T00:11:34.446Z,1.10
2017-12-31T00:14:03.677Z,1.20
2017-12-31T00:16:33.640Z,1.73
2017-12-31T00:19:02.859Z,1.10
2017-12-31T00:21:32.064Z,1.50
2017-12-31T00:24:01.919Z,1.40
2017-12-31T00:26:31.127Z,1.53
2017-12-31T00:29:00.344Z,1.90
2017-12-31T00:31:29.547Z,1.90
2017-12-31T00:34:00.609Z,1.67
2017-12-31T00:36:30.100Z,1.53
2017-12-31T00:38:59.323Z,1.20
2017-12-31T00:41:28.500Z,1.67
2017-12-31T00:43:57.716Z,1.30
2017-12-31T00:46:26.925Z,1.50
2017-12-31T00:48:56.107Z,1.37
2017-12-31T00:51:25.267Z,1.10
2017-12-31T00:53:55.165Z,1.13
2017-12-31T00:56:24.325Z,1.00
2017-12-31T00:58:53.511Z,1.47
2017-12-31T01:01:22.680Z,1.07
2017-12-31T01:03:53.208Z,1.47
2017-12-31T01:06:22.369Z,1.30
2017-12-31T01:08:53.185Z,1.43
2017-12-31T01:11:22.352Z,1.80
2017-12-31T01:13:51.535Z,1.73
2017-12-31T01:16:20.693Z,1.40
2017-12-31T01:18:49.881Z,1.73
2017-12-31T01:21:19.031Z,1.30
2017-12-31T01:23:48.220Z,1.93
2017-12-31T01:26:17.392Z,1.70
2017-12-31T01:28:46.588Z,1.87
2017-12-31T01:31:17.376Z,2.40
2017-12-31T01:33:46.558Z,2.23
2017-12-31T01:36:15.868Z,2.07
2017-12-31T01:38:45.061Z,2.53
2017-12-31T01:41:14.688Z,1.77
2017-12-31T01:43:43.875Z,2.20
2017-12-31T01:46:13.028Z,1.70
2017-12-31T01:48:47.924Z,1.90
2017-12-31T01:51:17.784Z,2.10
2017-12-31T01:53:48.607Z,3.13
2017-12-31T01:56:17.771Z,2.40
2017-12-31T01:58:46.988Z,2.40
2017-12-31T02:01:16.159Z,2.20
2017-12-31T02:03:45.361Z,2.30
2017-12-31T02:06:14.534Z,2.57
2017-12-31T02:08:45.203Z,2.03
2017-12-31T02:11:14.763Z,3.10
2017-12-31T02:13:43.929Z,2.53
2017-12-31T02:16:13.660Z,1.97
2017-12-31T02:18:42.819Z,2.47
2017-12-31T02:21:12.008Z,2.60
2017-12-31T02:23:41.166Z,1.50
2017-12-31T02:26:10.338Z,2.03
2017-12-31T02:28:39.519Z,2.53
2017-12-31T02:31:08.703Z,3.70
2017-12-31T02:33:37.908Z,2.87
2017-12-31T02:36:07.099Z,2.20
2017-12-31T02:38:36.306Z,1.97
2017-12-31T02:41:05.489Z,2.07
2017-12-31T02:43:35.615Z,2.73
2017-12-31T02:46:04.813Z,2.13
2017-12-31T02:48:34.016Z,2.20
2017-12-31T02:51:03.988Z,2.53
2017-12-31T02:53:33.145Z,1.87
2017-12-31T02:56:02.326Z,2.50
2017-12-31T02:58:32.249Z,2.57
2017-12-31T03:01:02.194Z,2.50
2017-12-31T03:03:32.108Z,2.20
2017-12-31T03:06:02.064Z,2.23
2017-12-31T03:08:31.398Z,2.83
2017-12-31T03:11:00.600Z,2.20
2017-12-31T03:13:29.772Z,2.17
2017-12-31T03:15:57.312Z,2.57
2017-12-31T03:18:24.824Z,2.40
2017-12-31T03:20:53.050Z,2.30
2017-12-31T03:23:20.559Z,2.23
2017-12-31T03:25:48.093Z,2.10
2017-12-31T03:28:15.617Z,2.10
2017-12-31T03:30:43.144Z,2.97
2017-12-31T03:33:10.660Z,2.10
2017-12-31T03:35:38.196Z,2.97
2017-12-31T03:38:05.747Z,2.20
2017-12-31T03:40:34.064Z,2.23
2017-12-31T03:43:01.596Z,2.60
2017-12-31T03:45:29.233Z,2.20
2017-12-31T03:47:56.776Z,1.90
2017-12-31T03:50:25.016Z,2.03
2017-12-31T03:52:52.582Z,2.57
2017-12-31T03:55:20.109Z,1.83
2017-12-31T03:57:47.648Z,2.23
2017-12-31T04:00:15.173Z,2.10
2017-12-31T04:02:42.718Z,1.60
2017-12-31T04:05:10.244Z,1.43
2017-12-31T04:07:38.551Z,1.67
2017-12-31T04:10:07.083Z,1.57
2017-12-31T04:12:35.375Z,1.37
2017-12-31T04:15:02.896Z,1.73
2017-12-31T04:17:32.466Z,1.70
2017-12-31T04:19:59.980Z,2.30
2017-12-31T04:22:27.914Z,1.93
2017-12-31T04:24:55.435Z,1.87
2017-12-31T04:27:24.356Z,1.27
2017-12-31T04:29:52.196Z,1.60
2017-12-31T04:32:19.726Z,1.57
2017-12-31T04:34:47.243Z,1.33
2017-12-31T04:37:14.764Z,1.40
2017-12-31T04:39:43.040Z,1.60
2017-12-31T04:42:10.588Z,1.60
2017-12-31T04:44:38.109Z,1.87
2017-12-31T04:47:05.673Z,1.67
2017-12-31T04:49:33.194Z,1.80
2017-12-31T04:52:01.206Z,1.80
2017-12-31T04:54:28.717Z,1.37
2017-12-31T04:56:56.469Z,1.73
2017-12-31T04:59:24.770Z,1.43
2017-12-31T05:01:52.300Z,1.40
2017-12-31T05:04:21.489Z,1.20
2017-12-31T05:06:49.014Z,1.40
2017-12-31T05:09:16.543Z,1.50
2017-12-31T05:11:44.191Z,1.10
2017-12-31T05:14:11.745Z,1.23
2017-12-31T05:16:39.877Z,1.70
2017-12-31T05:19:07.409Z,1.50
2017-12-31T05:21:34.920Z,1.63
2017-12-31T05:24:02.485Z,1.43
2017-12-31T05:26:30.934Z,1.80
2017-12-31T05:28:58.507Z,1.47
2017-12-31T05:31:26.044Z,1.40
2017-12-31T05:33:53.583Z,1.73
2017-12-31T05:36:21.108Z,1.83
2017-12-31T05:38:48.639Z,1.77
2017-12-31T05:41:16.146Z,1.63
2017-12-31T05:43:43.687Z,1.47
2017-12-31T05:46:11.211Z,1.07
2017-12-31T05:48:39.082Z,1.30
2017-12-31T05:51:07.149Z,1.40
2017-12-31T05:53:35.399Z,1.30
2017-12-31T05:56:02.910Z,1.60
2017-12-31T05:58:30.447Z,1.70
2017-12-31T06:00:57.961Z,1.83
2017-12-31T06:03:26.669Z,1.20
2017-12-31T06:05:54.189Z,1.20
2017-12-31T06:08:22.430Z,1.87
2017-12-31T06:10:50.760Z,1.63
2017-12-31T06:13:18.888Z,1.50
2017-12-31T06:15:47.720Z,1.50
2017-12-31T06:18:16.671Z,1.40
2017-12-31T06:20:44.200Z,1.37
2017-12-31T06:23:12.448Z,1.37
2017-12-31T06:25:39.981Z,1.70
2017-12-31T06:28:08.325Z,1.77
2017-12-31T06:30:35.852Z,1.37
2017-12-31T06:33:03.372Z,1.33
2017-12-31T06:35:31.830Z,2.00
2017-12-31T06:38:01.046Z,1.67
2017-12-31T06:40:28.637Z,1.60
2017-12-31T06:42:56.156Z,2.10
2017-12-31T06:45:23.691Z,1.77
2017-12-31T06:47:51.977Z,2.50
2017-12-31T06:50:19.505Z,1.60
2017-12-31T06:52:47.020Z,2.17
2017-12-31T06:55:14.559Z,2.07
2017-12-31T06:57:42.077Z,1.67
2017-12-31T07:00:13.377Z,2.43
2017-12-31T07:02:40.897Z,1.70
2017-12-31T07:05:10.983Z,1.67
2017-12-31T07:07:39.246Z,2.20
2017-12-31T07:10:06.787Z,1.83
2017-12-31T07:12:35.244Z,2.17
2017-12-31T07:15:03.539Z,1.83
2017-12-31T07:17:31.816Z,1.70
2017-12-31T07:19:59.347Z,1.70
2017-12-31T07:22:27.691Z,2.23
2017-12-31T07:24:56.133Z,1.93
2017-12-31T07:27:23.661Z,2.00
2017-12-31T07:29:52.954Z,1.90
2017-12-31T07:32:21.237Z,1.40
2017-12-31T07:34:50.493Z,1.67
2017-12-31T07:37:18.413Z,1.97
2017-12-31T07:39:46.725Z,1.20
2017-12-31T07:42:15.179Z,2.43
2017-12-31T07:44:43.520Z,2.40
2017-12-31T07:47:11.816Z,1.50
2017-12-31T07:49:39.959Z,1.70
2017-12-31T07:52:08.785Z,2.03
2017-12-31T07:54:36.297Z,1.27
2017-12-31T07:57:04.793Z,1.60
2017-12-31T07:59:32.395Z,1.37
2017-12-31T08:02:00.359Z,1.90
2017-12-31T08:04:29.677Z,1.70
2017-12-31T08:06:57.212Z,1.80
2017-12-31T08:09:26.481Z,2.00
2017-12-31T08:11:56.084Z,1.70
2017-12-31T08:14:23.593Z,2.00
2017-12-31T08:16:51.201Z,1.50
2017-12-31T08:19:18.722Z,1.50
2017-12-31T08:21:47.169Z,1.67
2017-12-31T08:24:14.681Z,1.50
2017-12-31T08:26:45.278Z,1.57
2017-12-31T08:29:15.367Z,1.33
2017-12-31T08:31:43.733Z,1.87
2017-12-31T08:34:11.253Z,1.53
2017-12-31T08:36:39.552Z,1.40
2017-12-31T08:39:08.604Z,1.60
2017-12-31T08:41:37.060Z,1.63
2017-12-31T08:44:06.081Z,1.73
2017-12-31T08:46:37.888Z,1.40
2017-12-31T08:49:05.436Z,1.40
2017-12-31T08:51:32.978Z,1.83
2017-12-31T08:54:00.495Z,1.63
2017-12-31T08:56:28.429Z,1.80
2017-12-31T08:58:55.952Z,1.50
2017-12-31T09:01:24.083Z,1.50
2017-12-31T09:03:51.615Z,1.57
2017-12-31T09:06:19.144Z,1.80
2017-12-31T09:08:46.676Z,2.50
2017-12-31T09:11:15.089Z,3.90
2017-12-31T09:13:42.626Z,2.93
2017-12-31T09:16:11.342Z,1.60
2017-12-31T09:18:39.101Z,1.80
2017-12-31T09:21:06.618Z,1.60
2017-12-31T09:23:34.157Z,1.50
2017-12-31T09:26:02.625Z,1.73
2017-12-31T09:28:31.729Z,1.67
2017-12-31T09:31:00.021Z,1.43
2017-12-31T09:33:28.960Z,1.37
2017-12-31T09:35:56.821Z,1.57
2017-12-31T09:38:24.373Z,1.50
2017-12-31T09:40:51.885Z,1.63
2017-12-31T09:43:19.447Z,1.40
2017-12-31T09:45:47.732Z,1.60
2017-12-31T09:48:16.876Z,2.40
2017-12-31T09:50:44.424Z,2.50
2017-12-31T09:53:13.396Z,1.50
2017-12-31T09:55:41.268Z,1.87
2017-12-31T09:58:09.928Z,1.57
2017-12-31T10:00:37.536Z,5.77
2017-12-31T10:03:06.060Z,1.90
2017-12-31T10:05:33.596Z,6.30
2017-12-31T10:08:01.220Z,1.93
2017-12-31T10:10:29.640Z,1.30
2017-12-31T10:12:57.244Z,1.50
2017-12-31T10:15:25.456Z,2.07
2017-12-31T10:17:54.049Z,1.40
2017-12-31T10:20:21.560Z,1.70
2017-12-31T10:22:50.466Z,1.50
2017-12-31T10:25:17.996Z,1.90
2017-12-31T10:27:47.808Z,2.00
2017-12-31T10:30:16.189Z,1.80
2017-12-31T10:32:47.416Z,1.63
2017-12-31T10:35:17.390Z,1.67
2017-12-31T10:37:44.923Z,2.60
2017-12-31T10:40:12.456Z,1.87
2017-12-31T10:42:39.970Z,1.27
2017-12-31T10:45:07.513Z,1.40
2017-12-31T10:47:35.024Z,2.00
2017-12-31T10:50:03.328Z,1.57
2017-12-31T10:55:31.475Z,1.40
2017-12-31T10:57:59.584Z,1.67
2017-12-31T11:00:35.241Z,1.40
2017-12-31T11:03:03.672Z,1.90
2017-12-31T11:05:35.300Z,1.50
2017-12-31T11:08:03.221Z,1.80
2017-12-31T11:10:30.780Z,1.57
2017-12-31T11:12:59.026Z,1.20
2017-12-31T11:15:26.589Z,1.57
2017-12-31T11:20:28.510Z,1.47
2017-12-31T11:22:56.020Z,1.30
2017-12-31T11:25:23.568Z,1.20
2017-12-31T11:27:51.858Z,1.73
2017-12-31T11:30:19.465Z,1.70
2017-12-31T11:32:47.621Z,1.50
2017-12-31T11:35:15.561Z,1.90
2017-12-31T11:37:43.100Z,1.30
2017-12-31T11:40:10.649Z,1.40
2017-12-31T11:42:38.168Z,1.57
2017-12-31T11:45:05.723Z,1.53
2017-12-31T11:47:35.564Z,1.20
2017-12-31T11:50:03.767Z,1.23
2017-12-31T11:52:32.095Z,1.60
2017-12-31T11:54:59.630Z,1.30
2017-12-31T11:57:27.155Z,1.43
2017-12-31T11:59:56.249Z,1.40
2017-12-31T12:02:24.535Z,1.70
2017-12-31T12:04:53.764Z,1.40
2017-12-31T12:07:22.050Z,1.43
2017-12-31T12:09:49.598Z,1.53
2017-12-31T12:12:18.813Z,1.67
2017-12-31T12:14:47.076Z,1.37
2017-12-31T12:17:16.348Z,1.37
2017-12-31T12:19:44.592Z,1.17
2017-12-31T12:22:12.518Z,1.50
2017-12-31T12:24:40.053Z,1.80
2017-12-31T12:27:09.424Z,1.20
2017-12-31T12:29:36.952Z,1.40
2017-12-31T12:32:04.788Z,1.57
2017-12-31T12:34:32.317Z,1.30
2017-12-31T12:37:00.664Z,1.50
2017-12-31T12:39:28.194Z,1.53
2017-12-31T12:41:55.729Z,1.30
2017-12-31T12:44:23.240Z,1.30
2017-12-31T12:46:53.440Z,1.40
2017-12-31T12:49:21.721Z,1.83
2017-12-31T12:51:49.259Z,1.37
2017-12-31T12:54:17.369Z,1.57
2017-12-31T12:56:45.636Z,1.70
2017-12-31T12:59:13.201Z,1.20
2017-12-31T13:01:41.719Z,0.90
2017-12-31T13:04:09.652Z,1.40
2017-12-31T13:06:37.197Z,1.57
2017-12-31T13:09:05.492Z,1.60
2017-12-31T13:11:33.071Z,1.67
2017-12-31T13:14:01.807Z,1.30
2017-12-31T13:16:29.356Z,1.17
2017-12-31T13:18:56.900Z,1.13
2017-12-31T13:21:25.228Z,1.13
2017-12-31T13:23:52.990Z,1.50
2017-12-31T13:26:20.568Z,1.20
2017-12-31T13:28:50.693Z,1.37
2017-12-31T13:31:18.995Z,1.10
2017-12-31T13:33:48.198Z,1.10
2017-12-31T13:36:18.448Z,1.40
2017-12-31T13:38:45.990Z,1.00
2017-12-31T13:41:13.501Z,1.30
2017-12-31T13:43:41.079Z,1.43
2017-12-31T13:46:08.639Z,1.23
2017-12-31T13:48:36.588Z,1.20
2017-12-31T13:51:04.923Z,1.20
2017-12-31T13:53:32.467Z,1.10
2017-12-31T13:55:59.981Z,1.03
2017-12-31T13:58:28.283Z,1.00
2017-12-31T14:00:56.657Z,1.10
2017-12-31T14:03:24.228Z,1.20
2017-12-31T14:05:52.160Z,1.30
2017-12-31T14:08:20.608Z,1.23
2017-12-31T14:10:48.899Z,1.20
2017-12-31T14:13:16.475Z,1.50
2017-12-31T14:15:44.748Z,1.10
2017-12-31T14:18:13.761Z,1.17
2017-12-31T14:20:42.049Z,3.40
2017-12-31T14:23:10.565Z,0.90
2017-12-31T14:25:38.239Z,1.13
2017-12-31T14:28:05.795Z,1.70
2017-12-31T14:30:33.302Z,1.47
2017-12-31T14:33:00.832Z,1.33
2017-12-31T14:35:28.423Z,1.33
2017-12-31T14:37:56.014Z,1.40
2017-12-31T14:40:23.844Z,1.60
2017-12-31T14:42:52.556Z,1.70
2017-12-31T14:45:20.280Z,2.00
2017-12-31T14:47:48.597Z,1.70
2017-12-31T14:50:16.840Z,1.90
2017-12-31T14:52:44.611Z,2.23
2017-12-31T14:55:13.554Z,1.80
2017-12-31T14:57:41.476Z,1.80
2017-12-31T15:00:09.827Z,2.03
2017-12-31T15:02:38.208Z,1.90
2017-12-31T15:05:05.736Z,2.13
2017-12-31T15:07:33.764Z,2.43
2017-12-31T15:10:01.441Z,1.93
2017-12-31T15:12:28.955Z,2.07
2017-12-31T15:14:56.548Z,1.70
2017-12-31T15:17:24.842Z,1.90
2017-12-31T15:19:52.824Z,1.90
2017-12-31T15:22:20.680Z,2.13
2017-12-31T15:24:48.263Z,2.30
2017-12-31T15:27:15.819Z,1.53
2017-12-31T15:29:43.364Z,1.63
2017-12-31T15:32:13.823Z,1.57
2017-12-31T15:34:41.500Z,1.70
2017-12-31T15:37:09.135Z,1.43
2017-12-31T15:39:37.521Z,1.50
2017-12-31T15:42:05.062Z,1.50
2017-12-31T15:44:34.325Z,1.30
2017-12-31T15:47:02.777Z,2.90
2017-12-31T15:49:30.354Z,1.50
2017-12-31T15:51:58.627Z,1.83
2017-12-31T15:54:27.101Z,2.37
2017-12-31T15:56:55.013Z,1.83
2017-12-31T15:59:22.966Z,3.27
2017-12-31T16:01:50.698Z,1.90
2017-12-31T16:07:02.684Z,2.60
2017-12-31T16:09:30.262Z,2.70
2017-12-31T16:11:57.780Z,2.37
2017-12-31T16:14:26.599Z,2.40
2017-12-31T16:16:54.479Z,2.60
2017-12-31T16:19:21.989Z,2.23
2017-12-31T16:21:49.562Z,2.60
2017-12-31T16:24:17.076Z,2.40
2017-12-31T16:26:44.601Z,2.40
2017-12-31T16:29:13.910Z,3.07
2017-12-31T16:31:41.581Z,3.60
2017-12-31T16:36:45.055Z,3.50
2017-12-31T16:39:14.066Z,4.60
2017-12-31T16:41:42.312Z,4.70
2017-12-31T16:44:09.826Z,3.90
2017-12-31T16:46:37.364Z,4.40
2017-12-31T16:49:05.849Z,4.30
2017-12-31T16:51:34.037Z,3.90
2017-12-31T16:54:01.560Z,4.47
2017-12-31T16:56:29.083Z,5.00
2017-12-31T16:58:57.410Z,5.97
2017-12-31T17:01:25.375Z,8.00
2017-12-31T17:03:53.847Z,10.10
2017-12-31T17:06:21.640Z,14.90
2017-12-31T17:08:49.170Z,10.00
2017-12-31T17:11:16.755Z,7.77
2017-12-31T17:13:45.074Z,6.37
2017-12-31T17:16:12.600Z,6.43
2017-12-31T17:18:40.175Z,4.93
2017-12-31T17:21:08.455Z,4.10
2017-12-31T17:23:35.968Z,4.70
2017-12-31T17:26:03.878Z,5.20
2017-12-31T17:28:31.373Z,5.67
2017-12-31T17:30:58.919Z,5.27
2017-12-31T17:33:26.470Z,5.10
2017-12-31T17:35:54.050Z,5.30
2017-12-31T17:38:21.606Z,7.90
2017-12-31T17:40:49.729Z,7.20
2017-12-31T17:43:18.219Z,6.40
2017-12-31T17:45:45.732Z,8.50
2017-12-31T17:48:14.182Z,9.13
2017-12-31T17:50:41.735Z,10.67
2017-12-31T17:53:09.314Z,8.83
2017-12-31T17:55:36.839Z,9.03
2017-12-31T17:58:04.383Z,9.23
2017-12-31T18:00:31.905Z,15.83
2017-12-31T18:02:59.432Z,21.73
2017-12-31T18:05:26.951Z,16.47
2017-12-31T18:07:55.824Z,16.30
2017-12-31T18:10:24.128Z,20.07
2017-12-31T18:12:52.606Z,14.93
2017-12-31T18:15:20.178Z,12.53
2017-12-31T18:17:47.727Z,16.27
2017-12-31T18:20:15.248Z,19.77
2017-12-31T18:22:43.566Z,21.80
2017-12-31T18:25:11.626Z,23.17
2017-12-31T18:27:40.064Z,15.10
2017-12-31T18:30:08.270Z,17.73
2017-12-31T18:32:37.468Z,22.23
2017-12-31T18:35:06.643Z,17.40
2017-12-31T18:37:35.824Z,15.80
2017-12-31T18:40:05.001Z,16.67
2017-12-31T18:42:34.192Z,14.27
2017-12-31T18:45:04.191Z,11.17
2017-12-31T18:47:34.085Z,12.40
2017-12-31T18:50:04.891Z,8.50
2017-12-31T18:52:34.092Z,12.37
2017-12-31T18:55:04.071Z,10.07
2017-12-31T18:57:33.486Z,8.57
2017-12-31T19:00:02.653Z,8.37
2017-12-31T19:02:31.844Z,12.90
2017-12-31T19:05:01.009Z,13.20
2017-12-31T19:07:31.594Z,11.43
2017-12-31T19:10:00.806Z,11.50
2017-12-31T19:12:29.996Z,13.77
2017-12-31T19:14:59.156Z,14.33
2017-12-31T19:17:28.394Z,17.90
2017-12-31T19:19:57.560Z,24.93
2017-12-31T19:22:26.785Z,24.50
2017-12-31T19:24:56.685Z,33.63
2017-12-31T19:27:26.251Z,27.90
2017-12-31T19:29:55.466Z,25.83
2017-12-31T19:32:24.642Z,25.80
2017-12-31T19:34:53.823Z,19.93
2017-12-31T19:37:23.036Z,15.93
2017-12-31T19:39:53.054Z,17.77
2017-12-31T19:42:22.303Z,22.00
2017-12-31T19:44:51.479Z,18.30
2017-12-31T19:47:21.670Z,22.60
2017-12-31T19:49:50.906Z,23.40
2017-12-31T19:52:20.080Z,28.17
2017-12-31T19:54:49.304Z,19.23
2017-12-31T19:57:18.809Z,18.37
2017-12-31T19:59:48.000Z,13.13
2017-12-31T20:02:17.856Z,19.47
2017-12-31T20:04:47.096Z,19.00
2017-12-31T20:07:16.264Z,19.50
2017-12-31T20:09:46.571Z,17.83
2017-12-31T20:12:15.777Z,21.50
2017-12-31T20:14:46.664Z,24.70
2017-12-31T20:17:15.832Z,30.70
2017-12-31T20:19:45.024Z,31.03
2017-12-31T20:22:14.202Z,32.30
2017-12-31T20:24:43.431Z,33.93
2017-12-31T20:27:12.654Z,27.40
2017-12-31T20:29:41.894Z,38.13
2017-12-31T20:32:11.114Z,42.20
2017-12-31T20:34:40.304Z,34.50
2017-12-31T20:37:10.374Z,33.10
2017-12-31T20:39:37.912Z,32.37
2017-12-31T20:42:05.836Z,28.83
2017-12-31T20:44:34.307Z,31.70
2017-12-31T20:47:01.876Z,30.03
2017-12-31T20:49:29.791Z,38.50
2017-12-31T20:51:58.925Z,33.83
2017-12-31T20:54:26.945Z,44.90
2017-12-31T20:56:55.389Z,35.03
2017-12-31T20:59:22.975Z,38.30
2017-12-31T21:01:50.586Z,54.33
2017-12-31T21:04:18.128Z,61.37
2017-12-31T21:06:47.044Z,44.57
2017-12-31T21:09:14.631Z,39.30
2017-12-31T21:11:43.113Z,50.97
2017-12-31T21:14:11.105Z,41.97
2017-12-31T21:16:38.944Z,41.57
2017-12-31T21:19:06.456Z,35.80
2017-12-31T21:21:35.680Z,54.73
2017-12-31T21:24:03.244Z,78.10
2017-12-31T21:26:30.823Z,52.20
2017-12-31T21:28:58.380Z,55.40
2017-12-31T21:31:25.926Z,42.73
2017-12-31T21:33:53.495Z,44.97
2017-12-31T21:36:21.077Z,43.03
2017-12-31T21:38:48.601Z,47.70
2017-12-31T21:41:16.968Z,50.37
2017-12-31T21:43:46.105Z,53.10
2017-12-31T21:46:13.730Z,52.27
2017-12-31T21:48:42.079Z,63.07
2017-12-31T21:51:09.667Z,52.63
2017-12-31T21:53:38.979Z,49.23
2017-12-31T21:56:06.582Z,53.10
2017-12-31T21:58:34.397Z,51.70
2017-12-31T22:01:08.552Z,47.07
2017-12-31T22:03:36.526Z,47.00
2017-12-31T22:06:04.918Z,48.67
2017-12-31T22:08:32.490Z,42.00
2017-12-31T22:11:00.064Z,35.87
2017-12-31T22:13:27.609Z,42.13
2017-12-31T22:15:56.197Z,37.23
2017-12-31T22:18:24.348Z,39.60
2017-12-31T22:20:51.939Z,55.67
2017-12-31T22:23:19.501Z,52.47
2017-12-31T22:25:47.857Z,46.63
2017-12-31T22:28:15.681Z,53.33
2017-12-31T22:30:43.258Z,46.83
2017-12-31T22:33:11.607Z,46.27
2017-12-31T22:35:39.192Z,64.90
2017-12-31T22:38:06.763Z,63.70
2017-12-31T22:40:34.359Z,68.30
2017-12-31T22:43:01.932Z,59.87
2017-12-31T22:45:29.585Z,55.93
2017-12-31T22:47:57.587Z,63.23
2017-12-31T22:50:25.164Z,55.80
2017-12-31T22:52:53.134Z,59.47
2017-12-31T22:55:20.669Z,57.83
2017-12-31T22:57:48.241Z,49.23
2017-12-31T23:00:16.199Z,196.00
2017-12-31T23:02:43.758Z,104.43
2017-12-31T23:05:11.715Z,78.47
2017-12-31T23:07:39.341Z,107.20
2017-12-31T23:10:07.479Z,199.50
2017-12-31T23:12:35.968Z,201.50
2017-12-31T23:15:03.884Z,326.17
2017-12-31T23:17:32.089Z,342.37
2017-12-31T23:19:59.613Z,302.30
2017-12-31T23:22:27.158Z,470.10
2017-12-31T23:24:54.723Z,519.80
2017-12-31T23:27:22.307Z,490.43
2017-12-31T23:29:49.838Z,401.17
2017-12-31T23:32:17.380Z,170.17
2017-12-31T23:34:44.943Z,209.80
2017-12-31T23:37:13.300Z,378.00
2017-12-31T23:39:41.591Z,118.33
2017-12-31T23:42:09.139Z,286.23
2017-12-31T23:44:37.469Z,214.30
2017-12-31T23:47:06.068Z,154.13
2017-12-31T23:49:33.607Z,89.93
2017-12-31T23:52:01.156Z,138.37
2017-12-31T23:54:28.682Z,97.03
2017-12-31T23:56:57.011Z,373.33
2017-12-31T23:59:24.590Z,222.97
